Time;durP1;ratioP1;P1;durP2;ratioP2;P2;SDS_P1;SDS_P2;PMS_P1;PMS_P2;Temp;Humidity;BMP_temperature;BMP_pressure;BME280_temperature;BME280_humidity;BME280_pressure;Samples;Min_cycle;Max_cycle;Signal;HPM_P1;HPM_P2
2022/01/14 00:01:00;;;;;;;;;;;;;;;;;;4206142;28;1099;-58
2022/01/14 00:03:21;;;;;;;;;;;;;;;;;;4206202;28;1214;-58
2022/01/14 00:05:41;;;;;;;;;;;;;;;;;;4206026;28;915;-58
2022/01/14 00:08:01;;;;;;;;;;;;;;;;;;4206269;28;1092;-58
2022/01/14 00:10:21;;;;;;;;;;;;;;;;;;4206070;28;1494;-58
2022/01/14 00:12:50;;;;;;;;;;;;;;;;;;4206221;28;950;-58
2022/01/14 00:15:24;;;;;;;;;;;;;;;;;;4205965;28;1170;-58
2022/01/14 00:17:44;;;;;;;;;;;;;;;;;;4205944;28;969;-58
2022/01/14 00:20:05;;;;;;;;;;;;;;;;;;4189253;28;1061;-58
2022/01/14 00:22:27;;;;;;;;;;;;;;;;;;4189496;28;1909;-58
2022/01/14 00:32:51;;;;;;;;;;;;;;;;;;4189165;28;950;-58
2022/01/14 00:35:12;;;;;;;;;;;;;;;;;;4189278;28;830;-58
2022/01/14 00:37:33;;;;;;;;;;;;;;;;;;4188453;28;1148;-58
2022/01/14 00:39:53;;;;;;;;;;;;;;;;;;4189044;28;1008;-59
2022/01/14 00:42:14;;;;;;;;;;;;;;;;;;4188894;28;1891;-58
2022/01/14 00:44:34;;;;;;;;;;;;;;;;;;4188860;28;1150;-58
2022/01/14 00:46:54;;;;;;;;;;;;;;;;;;4188956;28;1017;-58
2022/01/14 00:49:15;;;;;;;;;;;;;;;;;;4189147;28;963;-59
2022/01/14 00:51:36;;;;;;;;;;;;;;;;;;4189077;28;1075;-58
2022/01/14 00:53:56;;;;;;;;;;;;;;;;;;4188989;28;1156;-58
2022/01/14 00:56:26;;;;;;;;;;;;;;;;;;4188767;28;1264;-58
2022/01/14 01:01:25;;;;;;;;;;;;;;;;;;4188551;28;1171;-58
2022/01/14 01:03:45;;;;;;;;;;;;;;;;;;4188639;28;1052;-58
2022/01/14 01:06:06;;;;;;;;;;;;;;;;;;4202019;28;889;-58
2022/01/14 01:08:28;;;;;;;;;;;;;;;;;;4188513;28;1208;-58
2022/01/14 01:10:50;;;;;;;;;;;;;;;;;;4188799;28;818;-58
2022/01/14 01:13:17;;;;;;;;;;;;;;;;;;4188619;28;950;-58
2022/01/14 01:15:38;;;;;;;;;;;;;;;;;;4188380;28;970;-58
2022/01/14 01:17:58;;;;;;;;;;;;;;;;;;4189745;28;1181;-58
2022/01/14 01:20:18;;;;;;;;;;;;;;;;;;4205112;28;1005;-58
2022/01/14 01:22:39;;;;;;;;;;;;;;;;;;4204966;28;1980;-59
2022/01/14 01:25:05;;;;;;;;;;;;;;;;;;4190047;28;1053;-58
2022/01/14 01:27:26;;;;;;;;;;;;;;;;;;4204979;28;1022;-58
2022/01/14 01:29:52;;;;;;;;;;;;;;;;;;4205205;28;937;-58
2022/01/14 01:32:12;;;;;;;;;;;;;;;;;;4204811;28;1109;-57
2022/01/14 01:34:32;;;;;;;;;;;;;;;;;;4204911;28;1676;-58
2022/01/14 01:36:53;;;;;;;;;;;;;;;;;;4205217;28;1006;-59
2022/01/14 01:39:13;;;;;;;;;;;;;;;;;;4204982;28;1160;-58
2022/01/14 01:41:33;;;;;;;;;;;;;;;;;;4204901;28;932;-58
2022/01/14 01:43:54;;;;;;;;;;;;;;;;;;4205217;28;962;-59
2022/01/14 01:46:14;;;;;;;;;;;;;;;;;;4204914;28;985;-58
2022/01/14 01:48:34;;;;;;;;;;;;;;;;;;4204795;28;1120;-58
2022/01/14 01:50:57;;;;;;;;;;;;;;;;;;4204279;28;1006;-58
2022/01/14 01:53:18;;;;;;;;;;;;;;;;;;4204771;28;1072;-58
2022/01/14 01:55:38;;;;;;;;;;;;;;;;;;4205027;28;1029;-58
2022/01/14 01:57:59;;;;;;;;;;;;;;;;;;4204337;28;858;-58
2022/01/14 02:03:38;;;;;;;;;;;;;;;;;;4213503;28;1910;-58
2022/01/14 02:05:58;;;;;;;;;;;;;;;;;;4220923;28;1147;-58
2022/01/14 02:08:18;;;;;;;;;;;;;;;;;;4220553;28;1235;-58
2022/01/14 02:10:39;;;;;;;;;;;;;;;;;;4220448;28;1169;-59
2022/01/14 02:13:01;;;;;;;;;;;;;;;;;;4220539;28;1080;-58
2022/01/14 02:15:41;;;;;;;;;;;;;;;;;;4221761;28;1255;-58
2022/01/14 02:23:39;;;;;;;;;;;;;;;;;;4192236;28;1906;-58
2022/01/14 02:25:59;;;;;;;;;;;;;;;;;;4220920;28;912;-58
2022/01/14 02:28:20;;;;;;;;;;;;;;;;;;4220726;28;1280;-58
2022/01/14 02:30:41;;;;;;;;;;;;;;;;;;4220974;28;962;-58
2022/01/14 02:33:02;;;;;;;;;;;;;;;;;;4220985;28;1264;-58
2022/01/14 02:35:22;;;;;;;;;;;;;;;;;;4220348;28;1100;-58
2022/01/14 02:37:42;;;;;;;;;;;;;;;;;;4220855;28;1349;-58
2022/01/14 02:40:02;;;;;;;;;;;;;;;;;;4220391;28;1148;-57
2022/01/14 02:42:22;;;;;;;;;;;;;;;;;;4220792;28;1910;-58
2022/01/14 02:44:43;;;;;;;;;;;;;;;;;;4221216;28;1249;-58
2022/01/14 02:47:05;;;;;;;;;;;;;;;;;;4220911;28;954;-58
2022/01/14 02:49:27;;;;;;;;;;;;;;;;;;4220965;28;953;-58
2022/01/14 02:51:47;;;;;;;;;;;;;;;;;;4220585;28;1177;-58
2022/01/14 02:54:14;;;;;;;;;;;;;;;;;;4220626;28;1168;-58
2022/01/14 02:56:34;;;;;;;;;;;;;;;;;;4220990;28;871;-58
2022/01/14 02:58:55;;;;;;;;;;;;;;;;;;4220369;28;1092;-58
2022/01/14 03:01:15;;;;;;;;;;;;;;;;;;4222256;28;1024;-58
2022/01/14 03:03:36;;;;;;;;;;;;;;;;;;4223471;28;1933;-58
2022/01/14 03:05:56;;;;;;;;;;;;;;;;;;4223542;28;1019;-59
2022/01/14 03:08:16;;;;;;;;;;;;;;;;;;4223502;28;942;-57
2022/01/14 03:10:37;;;;;;;;;;;;;;;;;;4223410;28;943;-58
2022/01/14 03:12:57;;;;;;;;;;;;;;;;;;4223564;28;1040;-58
2022/01/14 03:15:19;;;;;;;;;;;;;;;;;;4223450;28;1134;-58
2022/01/14 03:17:39;;;;;;;;;;;;;;;;;;4223263;28;1138;-58
2022/01/14 03:20:01;;;;;;;;;;;;;;;;;;4206513;28;1008;-58
2022/01/14 03:22:27;;;;;;;;;;;;;;;;;;4188699;28;896;-58
2022/01/14 03:27:25;;;;;;;;;;;;;;;;;;4206482;28;1111;-58
2022/01/14 03:29:46;;;;;;;;;;;;;;;;;;4191429;28;1221;-57
2022/01/14 03:32:07;;;;;;;;;;;;;;;;;;4206495;28;1069;-59
2022/01/14 03:34:27;;;;;;;;;;;;;;;;;;4206537;28;977;-58
2022/01/14 03:36:47;;;;;;;;;;;;;;;;;;4206600;28;1354;-58
2022/01/14 03:39:08;;;;;;;;;;;;;;;;;;4206017;28;1044;-58
2022/01/14 03:41:28;;;;;;;;;;;;;;;;;;4206265;28;1303;-58
2022/01/14 03:43:48;;;;;;;;;;;;;;;;;;4205957;28;1977;-58
2022/01/14 03:46:09;;;;;;;;;;;;;;;;;;4206528;28;946;-58
2022/01/14 03:48:30;;;;;;;;;;;;;;;;;;4206615;28;1081;-58
2022/01/14 03:50:50;;;;;;;;;;;;;;;;;;4205819;28;951;-58
2022/01/14 03:53:12;;;;;;;;;;;;;;;;;;4205784;28;949;-58
2022/01/14 03:55:33;;;;;;;;;;;;;;;;;;4206025;28;1047;-58
2022/01/14 03:57:53;;;;;;;;;;;;;;;;;;4205775;28;1376;-58
2022/01/14 04:00:13;;;;;;;;;;;;;;;;;;4206032;28;1005;-58
2022/01/14 04:02:39;;;;;;;;;;;;;;;;;;4206014;28;1025;-58
2022/01/14 04:04:59;;;;;;;;;;;;;;;;;;4205742;28;1141;-58
2022/01/14 04:07:20;;;;;;;;;;;;;;;;;;4205794;28;985;-58
2022/01/14 04:09:41;;;;;;;;;;;;;;;;;;4206051;28;1229;-58
2022/01/14 04:12:01;;;;;;;;;;;;;;;;;;4205273;28;1371;-59
2022/01/14 04:17:00;;;;;;;;;;;;;;;;;;4206250;28;886;-58
2022/01/14 04:19:20;;;;;;;;;;;;;;;;;;4218358;28;1321;-58
2022/01/14 04:21:40;;;;;;;;;;;;;;;;;;4222376;28;1055;-58
2022/01/14 04:24:00;;;;;;;;;;;;;;;;;;4222386;28;1913;-58
2022/01/14 04:26:21;;;;;;;;;;;;;;;;;;4222910;28;956;-58
2022/01/14 04:28:41;;;;;;;;;;;;;;;;;;4222494;28;1167;-58
2022/01/14 04:31:01;;;;;;;;;;;;;;;;;;4222950;28;1225;-58
2022/01/14 04:33:21;;;;;;;;;;;;;;;;;;4222491;28;1023;-58
2022/01/14 04:35:42;;;;;;;;;;;;;;;;;;4222340;28;1179;-59
2022/01/14 04:38:02;;;;;;;;;;;;;;;;;;4222418;28;1031;-58
2022/01/14 04:40:22;;;;;;;;;;;;;;;;;;4222729;28;1247;-58
2022/01/14 04:42:43;;;;;;;;;;;;;;;;;;4222223;28;1004;-58
2022/01/14 04:45:04;;;;;;;;;;;;;;;;;;4222063;28;1093;-58
2022/01/14 04:47:32;;;;;;;;;;;;;;;;;;4222569;28;1252;-58
2022/01/14 04:49:53;;;;;;;;;;;;;;;;;;4222126;28;966;-58
2022/01/14 04:52:13;;;;;;;;;;;;;;;;;;4222009;28;1128;-58
2022/01/14 04:54:33;;;;;;;;;;;;;;;;;;4222353;28;1012;-58
2022/01/14 04:56:54;;;;;;;;;;;;;;;;;;4222418;28;1014;-58
2022/01/14 04:59:14;;;;;;;;;;;;;;;;;;4222394;28;1299;-58
2022/01/14 05:01:35;;;;;;;;;;;;;;;;;;4222383;28;1018;-59
2022/01/14 05:03:57;;;;;;;;;;;;;;;;;;4222314;28;1929;-58
2022/01/14 05:06:18;;;;;;;;;;;;;;;;;;4221906;28;1007;-58
2022/01/14 05:08:39;;;;;;;;;;;;;;;;;;4222371;28;897;-58
2022/01/14 05:11:15;;;;;;;;;;;;;;;;;;4221922;28;1054;-58
2022/01/14 05:13:36;;;;;;;;;;;;;;;;;;4221813;28;1125;-58
2022/01/14 05:15:56;;;;;;;;;;;;;;;;;;4221849;28;1565;-58
2022/01/14 05:18:17;;;;;;;;;;;;;;;;;;4221763;28;1310;-58
2022/01/14 05:20:37;;;;;;;;;;;;;;;;;;4206522;28;962;-58
2022/01/14 05:22:58;;;;;;;;;;;;;;;;;;4221816;28;1270;-58
2022/01/14 05:25:18;;;;;;;;;;;;;;;;;;4221947;28;1126;-59
2022/01/14 05:27:38;;;;;;;;;;;;;;;;;;4222090;28;945;-58
2022/01/14 05:29:59;;;;;;;;;;;;;;;;;;4221473;28;996;-58
2022/01/14 05:32:20;;;;;;;;;;;;;;;;;;4221553;28;1375;-58
2022/01/14 05:34:41;;;;;;;;;;;;;;;;;;4221851;28;958;-58
2022/01/14 05:37:01;;;;;;;;;;;;;;;;;;4221765;28;931;-58
2022/01/14 05:39:23;;;;;;;;;;;;;;;;;;4221682;28;938;-58
2022/01/14 05:41:44;;;;;;;;;;;;;;;;;;4221946;28;1029;-58
2022/01/14 05:44:04;;;;;;;;;;;;;;;;;;4221304;28;1985;-58
2022/01/14 05:46:25;;;;;;;;;;;;;;;;;;4221450;28;970;-58
2022/01/14 05:48:45;;;;;;;;;;;;;;;;;;4221751;28;1275;-58
2022/01/14 05:51:05;;;;;;;;;;;;;;;;;;4221816;28;1061;-59
2022/01/14 05:53:26;;;;;;;;;;;;;;;;;;4221404;28;1020;-58
2022/01/14 05:55:46;;;;;;;;;;;;;;;;;;4221652;28;1003;-58
2022/01/14 05:58:07;;;;;;;;;;;;;;;;;;4221693;28;942;-58
2022/01/14 06:00:27;;;;;;;;;;;;;;;;;;4221371;28;1075;-58
2022/01/14 06:02:47;;;;;;;;;;;;;;;;;;4221329;28;1177;-58
2022/01/14 06:05:07;;;;;;;;;;;;;;;;;;4221370;28;1909;-58
2022/01/14 06:07:28;;;;;;;;;;;;;;;;;;4221090;28;1154;-59
2022/01/14 06:09:48;;;;;;;;;;;;;;;;;;4221155;28;1371;-58
2022/01/14 06:12:08;;;;;;;;;;;;;;;;;;4221214;28;975;-58
2022/01/14 06:14:28;;;;;;;;;;;;;;;;;;4221536;28;940;-58
2022/01/14 06:16:49;;;;;;;;;;;;;;;;;;4221540;28;1009;-58
2022/01/14 06:19:09;;;;;;;;;;;;;;;;;;4221262;28;1168;-58
2022/01/14 06:21:30;;;;;;;;;;;;;;;;;;4221026;28;1035;-58
2022/01/14 06:23:50;;;;;;;;;;;;;;;;;;4221079;28;1985;-59
2022/01/14 06:26:10;;;;;;;;;;;;;;;;;;4220969;28;1019;-58
2022/01/14 06:28:30;;;;;;;;;;;;;;;;;;4220855;28;1074;-58
2022/01/14 06:30:52;;;;;;;;;;;;;;;;;;4221163;28;1424;-59
2022/01/14 06:33:12;;;;;;;;;;;;;;;;;;4221012;28;934;-58
2022/01/14 06:35:32;;;;;;;;;;;;;;;;;;4221518;28;1042;-58
2022/01/14 06:37:52;;;;;;;;;;;;;;;;;;4224315;28;1109;-58
2022/01/14 06:40:13;;;;;;;;;;;;;;;;;;4224281;28;935;-58
2022/01/14 06:42:33;;;;;;;;;;;;;;;;;;4208360;28;1138;-58
2022/01/14 06:44:53;;;;;;;;;;;;;;;;;;4223685;28;2002;-59
2022/01/14 06:47:14;;;;;;;;;;;;;;;;;;4223713;28;1306;-58
2022/01/14 06:49:34;;;;;;;;;;;;;;;;;;4223797;28;1080;-58
2022/01/14 06:51:54;;;;;;;;;;;;;;;;;;4223700;28;1037;-58
2022/01/14 06:54:14;;;;;;;;;;;;;;;;;;4223779;28;1129;-58
2022/01/14 06:56:34;;;;;;;;;;;;;;;;;;4223661;28;838;-58
2022/01/14 06:58:55;;;;;;;;;;;;;;;;;;4223561;28;1660;-58
2022/01/14 07:01:15;;;;;;;;;;;;;;;;;;4223977;28;1185;-58
2022/01/14 07:03:35;;;;;;;;;;;;;;;;;;4223520;28;933;-58
2022/01/14 07:05:56;;;;;;;;;;;;;;;;;;4223505;28;1001;-58
2022/01/14 07:08:16;;;;;;;;;;;;;;;;;;4223877;28;858;-59
2022/01/14 07:10:37;;;;;;;;;;;;;;;;;;4224006;28;997;-58
2022/01/14 07:12:57;;;;;;;;;;;;;;;;;;4223277;28;987;-58
2022/01/14 07:15:17;;;;;;;;;;;;;;;;;;4223280;28;963;-58
2022/01/14 07:17:37;;;;;;;;;;;;;;;;;;4223363;28;1259;-58
2022/01/14 07:20:05;;;;;;;;;;;;;;;;;;4206973;28;1122;-58
2022/01/14 07:22:25;;;;;;;;;;;;;;;;;;4206954;28;1039;-58
2022/01/14 07:24:45;;;;;;;;;;;;;;;;;;4206790;28;1980;-59
2022/01/14 07:27:06;;;;;;;;;;;;;;;;;;4206392;28;1373;-58
2022/01/14 07:29:26;;;;;;;;;;;;;;;;;;4206844;28;999;-58
2022/01/14 07:31:46;;;;;;;;;;;;;;;;;;4206209;28;1022;-58
2022/01/14 07:34:07;;;;;;;;;;;;;;;;;;4206707;28;1002;-59
2022/01/14 07:36:27;;;;;;;;;;;;;;;;;;4206370;28;1189;-58
2022/01/14 07:38:47;;;;;;;;;;;;;;;;;;4206181;28;1036;-58
2022/01/14 07:41:07;;;;;;;;;;;;;;;;;;4206265;28;1074;-58
2022/01/14 07:43:28;;;;;;;;;;;;;;;;;;4206102;28;1276;-58
2022/01/14 07:45:48;;;;;;;;;;;;;;;;;;4206652;28;1902;-58
2022/01/14 07:48:08;;;;;;;;;;;;;;;;;;4205396;28;989;-58
2022/01/14 07:50:29;;;;;;;;;;;;;;;;;;4206646;28;833;-57
2022/01/14 07:52:49;;;;;;;;;;;;;;;;;;4206268;28;1095;-57
2022/01/14 07:55:09;;;;;;;;;;;;;;;;;;4206207;28;1130;-57
2022/01/14 07:57:30;;;;;;;;;;;;;;;;;;4205594;28;946;-56
2022/01/14 07:59:51;;;;;;;;;;;;;;;;;;4205836;28;1406;-56
2022/01/14 08:02:12;;;;;;;;;;;;;;;;;;4188205;28;1879;-56
2022/01/14 08:04:34;;;;;;;;;;;;;;;;;;4206337;28;1913;-57
2022/01/14 08:06:58;;;;;;;;;;;;;;;;;;4205921;28;1050;-57
2022/01/14 08:09:19;;;;;;;;;;;;;;;;;;4205982;28;1423;-56
2022/01/14 08:11:39;;;;;;;;;;;;;;;;;;4205923;28;947;-56
2022/01/14 08:14:00;;;;;;;;;;;;;;;;;;4205343;28;1763;-57
2022/01/14 08:16:20;;;;;;;;;;;;;;;;;;4206069;28;1191;-57
2022/01/14 08:18:41;;;;;;;;;;;;;;;;;;4213263;28;1264;-56
2022/01/14 08:21:02;;;;;;;;;;;;;;;;;;4222682;28;1163;-56
2022/01/14 08:23:22;;;;;;;;;;;;;;;;;;4222691;28;1209;-56
2022/01/14 08:25:43;;;;;;;;;;;;;;;;;;4222740;28;1910;-56
2022/01/14 08:28:03;;;;;;;;;;;;;;;;;;4222657;28;936;-55
2022/01/14 08:30:23;;;;;;;;;;;;;;;;;;4222485;28;1509;-57
2022/01/14 08:32:43;;;;;;;;;;;;;;;;;;4222823;28;941;-56
2022/01/14 08:35:04;;;;;;;;;;;;;;;;;;4222432;28;939;-56
2022/01/14 08:37:24;;;;;;;;;;;;;;;;;;4222881;28;945;-56
2022/01/14 08:39:44;;;;;;;;;;;;;;;;;;4222433;28;1048;-56
2022/01/14 08:42:05;;;;;;;;;;;;;;;;;;4222757;28;831;-56
2022/01/14 08:44:25;;;;;;;;;;;;;;;;;;4222683;28;1020;-56
2022/01/14 08:46:45;;;;;;;;;;;;;;;;;;4222462;28;1022;-57
2022/01/14 08:49:06;;;;;;;;;;;;;;;;;;4222334;28;1133;-56
2022/01/14 08:51:28;;;;;;;;;;;;;;;;;;4222212;28;885;-56
2022/01/14 08:53:48;;;;;;;;;;;;;;;;;;4216397;28;2264;-56
2022/01/14 08:56:08;;;;;;;;;;;;;;;;;;4219253;28;1663;-56
2022/01/14 08:58:29;;;;;;;;;;;;;;;;;;4218815;28;1724;-55
2022/01/14 09:00:49;;;;;;;;;;;;;;;;;;4220898;28;2625;-56
2022/01/14 09:03:10;;;;;;;;;;;;;;;;;;4215483;28;2454;-56
2022/01/14 09:05:30;;;;;;;;;;;;;;;;;;4218939;28;1897;-56
2022/01/14 09:07:50;;;;;;;;;;;;;;;;;;4220728;28;1608;-56
2022/01/14 09:10:11;;;;;;;;;;;;;;;;;;4222540;28;938;-56
2022/01/14 09:12:31;;;;;;;;;;;;;;;;;;4221858;28;1226;-56
2022/01/14 09:14:52;;;;;;;;;;;;;;;;;;4207883;28;1189;-56
2022/01/14 09:17:13;;;;;;;;;;;;;;;;;;4205337;28;1162;-56
2022/01/14 09:19:34;;;;;;;;;;;;;;;;;;4205325;28;2406;-56
2022/01/14 09:21:54;;;;;;;;;;;;;;;;;;4205136;28;971;-56
2022/01/14 09:24:14;;;;;;;;;;;;;;;;;;4205026;28;976;-56
2022/01/14 09:26:35;;;;;;;;;;;;;;;;;;4218302;28;1902;-57
2022/01/14 09:28:55;;;;;;;;;;;;;;;;;;4204978;28;1063;-56
2022/01/14 09:31:16;;;;;;;;;;;;;;;;;;4217458;28;3192;-57
2022/01/14 09:33:37;;;;;;;;;;;;;;;;;;4203637;28;1725;-58
2022/01/14 09:35:58;;;;;;;;;;;;;;;;;;4219449;28;1714;-56
2022/01/14 09:38:18;;;;;;;;;;;;;;;;;;4221032;28;2201;-57
2022/01/14 09:40:39;;;;;;;;;;;;;;;;;;4216701;28;1857;-56
2022/01/14 09:43:01;;;;;;;;;;;;;;;;;;4220695;28;1942;-57
2022/01/14 09:45:21;;;;;;;;;;;;;;;;;;4220611;28;1910;-56
2022/01/14 09:47:42;;;;;;;;;;;;;;;;;;4220705;28;1567;-56
2022/01/14 09:50:02;;;;;;;;;;;;;;;;;;4221151;28;1510;-56
2022/01/14 09:52:23;;;;;;;;;;;;;;;;;;4221844;28;1020;-57
2022/01/14 09:54:43;;;;;;;;;;;;;;;;;;4221025;28;1281;-56
2022/01/14 09:57:03;;;;;;;;;;;;;;;;;;4221422;28;970;-56
2022/01/14 09:59:23;;;;;;;;;;;;;;;;;;4221763;28;1561;-56
2022/01/14 10:01:43;;;;;;;;;;;;;;;;;;4221344;28;1595;-56
2022/01/14 10:04:03;;;;;;;;;;;;;;;;;;4221770;28;1003;-56
2022/01/14 10:06:24;;;;;;;;;;;;;;;;;;4221717;28;1906;-56
2022/01/14 10:08:45;;;;;;;;;;;;;;;;;;4221658;28;1049;-55
2022/01/14 10:11:05;;;;;;;;;;;;;;;;;;4222404;28;1144;-56
2022/01/14 10:13:25;;;;;;;;;;;;;;;;;;4211473;28;2367;-55
2022/01/14 10:15:46;;;;;;;;;;;;;;;;;;4208000;28;1025;-55
2022/01/14 10:18:06;;;;;;;;;;;;;;;;;;4207708;28;1291;-56
2022/01/14 10:20:26;;;;;;;;;;;;;;;;;;4213494;28;1462;-55
2022/01/14 10:22:47;;;;;;;;;;;;;;;;;;4224265;28;1012;-55
2022/01/14 10:25:07;;;;;;;;;;;;;;;;;;4224390;28;1909;-55
2022/01/14 10:27:29;;;;;;;;;;;;;;;;;;4224067;28;982;-55
2022/01/14 10:29:50;;;;;;;;;;;;;;;;;;4224451;28;1072;-55
2022/01/14 10:32:12;;;;;;;;;;;;;;;;;;4224091;28;1145;-55
2022/01/14 10:34:33;;;;;;;;;;;;;;;;;;4223848;28;1180;-55
2022/01/14 10:36:53;;;;;;;;;;;;;;;;;;4223966;28;1005;-55
2022/01/14 10:39:14;;;;;;;;;;;;;;;;;;4223610;28;1012;-55
2022/01/14 10:41:34;;;;;;;;;;;;;;;;;;4224266;28;1091;-55
2022/01/14 10:43:54;;;;;;;;;;;;;;;;;;4208763;28;1355;-56
2022/01/14 10:46:15;;;;;;;;;;;;;;;;;;4223635;28;1883;-55
2022/01/14 10:48:35;;;;;;;;;;;;;;;;;;4223640;28;923;-55
2022/01/14 10:50:55;;;;;;;;;;;;;;;;;;4223677;28;1112;-55
2022/01/14 10:53:15;;;;;;;;;;;;;;;;;;4223459;28;990;-55
2022/01/14 10:55:35;;;;;;;;;;;;;;;;;;4223601;28;1403;-55
2022/01/14 10:57:57;;;;;;;;;;;;;;;;;;4224061;28;1013;-56
2022/01/14 11:00:18;;;;;;;;;;;;;;;;;;4223972;28;1346;-55
2022/01/14 11:02:38;;;;;;;;;;;;;;;;;;4224200;28;953;-55
2022/01/14 11:04:59;;;;;;;;;;;;;;;;;;4223637;28;1047;-55
2022/01/14 11:07:19;;;;;;;;;;;;;;;;;;4223743;28;1956;-55
2022/01/14 11:09:40;;;;;;;;;;;;;;;;;;4223576;28;1006;-56
2022/01/14 11:12:00;;;;;;;;;;;;;;;;;;4223371;28;1166;-55
2022/01/14 11:14:20;;;;;;;;;;;;;;;;;;4223841;28;836;-55
2022/01/14 11:16:41;;;;;;;;;;;;;;;;;;4224137;28;851;-55
2022/01/14 11:19:02;;;;;;;;;;;;;;;;;;4223708;28;1076;-55
2022/01/14 11:24:03;;;;;;;;;;;;;;;;;;4223585;28;1122;-55
2022/01/14 11:26:24;;;;;;;;;;;;;;;;;;4223155;28;1901;-56
2022/01/14 11:28:45;;;;;;;;;;;;;;;;;;4223425;28;1019;-55
2022/01/14 11:31:05;;;;;;;;;;;;;;;;;;4223109;28;977;-55
2022/01/14 11:33:25;;;;;;;;;;;;;;;;;;4223377;28;1060;-56
2022/01/14 11:35:45;;;;;;;;;;;;;;;;;;4223190;28;938;-55
2022/01/14 11:38:06;;;;;;;;;;;;;;;;;;4223411;28;1023;-55
2022/01/14 11:40:26;;;;;;;;;;;;;;;;;;4223017;28;1154;-55
2022/01/14 11:42:47;;;;;;;;;;;;;;;;;;4223040;28;1045;-56
2022/01/14 11:45:07;;;;;;;;;;;;;;;;;;4223511;28;849;-55
2022/01/14 11:47:31;;;;;;;;;;;;;;;;;;4222983;28;1983;-55
2022/01/14 11:49:51;;;;;;;;;;;;;;;;;;4222980;28;1040;-55
2022/01/14 11:52:12;;;;;;;;;;;;;;;;;;4223040;28;961;-55
2022/01/14 11:54:33;;;;;;;;;;;;;;;;;;4223560;28;953;-55
2022/01/14 11:56:53;;;;;;;;;;;;;;;;;;4223396;28;1487;-55
2022/01/14 11:59:13;;;;;;;;;;;;;;;;;;4223053;28;981;-55
2022/01/14 12:01:34;;;;;;;;;;;;;;;;;;4222885;28;1131;-55
2022/01/14 12:03:55;;;;;;;;;;;;;;;;;;4223035;28;1179;-55
2022/01/14 12:06:15;;;;;;;;;;;;;;;;;;4222562;28;1953;-55
2022/01/14 12:08:35;;;;;;;;;;;;;;;;;;4222809;28;910;-55
2022/01/14 12:10:56;;;;;;;;;;;;;;;;;;4219615;28;1308;-55
2022/01/14 12:13:16;;;;;;;;;;;;;;;;;;4222952;28;1030;-55
2022/01/14 12:15:37;;;;;;;;;;;;;;;;;;4223049;28;1105;-56
2022/01/14 12:17:58;;;;;;;;;;;;;;;;;;4222636;28;1180;-55
2022/01/14 12:20:18;;;;;;;;;;;;;;;;;;4221240;28;1352;-55
2022/01/14 12:22:38;;;;;;;;;;;;;;;;;;4220021;28;1152;-55
2022/01/14 12:24:58;;;;;;;;;;;;;;;;;;4222353;28;1166;-56
2022/01/14 12:27:19;;;;;;;;;;;;;;;;;;4219615;28;1909;-55
2022/01/14 12:29:39;;;;;;;;;;;;;;;;;;4219634;28;945;-55
2022/01/14 12:32:00;;;;;;;;;;;;;;;;;;4221748;28;896;-55
2022/01/14 12:34:20;;;;;;;;;;;;;;;;;;4218611;28;1513;-55
2022/01/14 12:36:40;;;;;;;;;;;;;;;;;;4220560;28;1164;-55
2022/01/14 12:39:00;;;;;;;;;;;;;;;;;;4222687;28;1048;-55
2022/01/14 12:41:21;;;;;;;;;;;;;;;;;;4222644;28;970;-55
2022/01/14 12:43:41;;;;;;;;;;;;;;;;;;4222516;28;970;-55
2022/01/14 12:46:13;;;;;;;;;;;;;;;;;;4222258;28;1913;-55
2022/01/14 12:48:46;;;;;;;;;;;;;;;;;;4222673;28;908;-55
2022/01/14 12:51:07;;;;;;;;;;;;;;;;;;4222611;28;1036;-56
2022/01/14 12:53:27;;;;;;;;;;;;;;;;;;4222366;28;933;-55
2022/01/14 12:55:47;;;;;;;;;;;;;;;;;;4222177;28;925;-55
2022/01/14 12:58:07;;;;;;;;;;;;;;;;;;4222231;28;984;-55
2022/01/14 13:00:28;;;;;;;;;;;;;;;;;;4222587;28;1245;-55
2022/01/14 13:02:48;;;;;;;;;;;;;;;;;;4222401;28;867;-55
2022/01/14 13:05:09;;;;;;;;;;;;;;;;;;4222484;28;964;-55
2022/01/14 13:07:29;;;;;;;;;;;;;;;;;;4222076;28;1985;-55
2022/01/14 13:09:49;;;;;;;;;;;;;;;;;;4222059;28;942;-55
2022/01/14 13:12:11;;;;;;;;;;;;;;;;;;4222294;28;1146;-55
2022/01/14 13:14:32;;;;;;;;;;;;;;;;;;4222465;28;829;-55
2022/01/14 13:16:53;;;;;;;;;;;;;;;;;;4222258;28;1003;-55
2022/01/14 13:19:14;;;;;;;;;;;;;;;;;;4222187;28;1088;-55
2022/01/14 13:21:34;;;;;;;;;;;;;;;;;;4221732;28;1005;-55
2022/01/14 13:23:54;;;;;;;;;;;;;;;;;;4221674;28;1176;-56
2022/01/14 13:26:15;;;;;;;;;;;;;;;;;;4221976;28;1155;-55
2022/01/14 13:28:35;;;;;;;;;;;;;;;;;;4221998;28;965;-55
2022/01/14 13:30:55;;;;;;;;;;;;;;;;;;4221651;28;1173;-56
2022/01/14 13:33:17;;;;;;;;;;;;;;;;;;4221999;28;870;-55
2022/01/14 13:35:38;;;;;;;;;;;;;;;;;;4219459;28;1827;-55
2022/01/14 13:37:58;;;;;;;;;;;;;;;;;;4203651;28;910;-55
2022/01/14 13:40:19;;;;;;;;;;;;;;;;;;4207483;28;1215;-56
2022/01/14 13:42:40;;;;;;;;;;;;;;;;;;4220360;28;1345;-55
2022/01/14 13:45:00;;;;;;;;;;;;;;;;;;4220191;28;1176;-55
2022/01/14 13:47:20;;;;;;;;;;;;;;;;;;4218009;28;1983;-55
2022/01/14 13:49:40;;;;;;;;;;;;;;;;;;4220238;28;1007;-55
2022/01/14 13:52:02;;;;;;;;;;;;;;;;;;4220106;28;1297;-55
2022/01/14 13:54:22;;;;;;;;;;;;;;;;;;4203269;28;1002;-56
2022/01/14 13:56:42;;;;;;;;;;;;;;;;;;4203155;28;998;-55
2022/01/14 13:59:04;;;;;;;;;;;;;;;;;;4203298;28;995;-55
2022/01/14 14:01:24;;;;;;;;;;;;;;;;;;4203429;28;1101;-55
2022/01/14 14:03:47;;;;;;;;;;;;;;;;;;4203073;28;1088;-55
2022/01/14 14:06:09;;;;;;;;;;;;;;;;;;4203219;28;1170;-56
2022/01/14 14:08:44;;;;;;;;;;;;;;;;;;4204168;28;2049;-55
2022/01/14 14:16:22;;;;;;;;;;;;;;;;;;4221009;28;1133;-56
2022/01/14 14:18:42;;;;;;;;;;;;;;;;;;4220848;28;1148;-55
2022/01/14 14:21:03;;;;;;;;;;;;;;;;;;4221254;28;1183;-55
2022/01/14 14:23:24;;;;;;;;;;;;;;;;;;4221373;28;1031;-55
2022/01/14 14:25:46;;;;;;;;;;;;;;;;;;4221149;28;973;-55
2022/01/14 14:28:08;;;;;;;;;;;;;;;;;;4221095;28;1988;-55
2022/01/14 14:30:28;;;;;;;;;;;;;;;;;;4220981;28;934;-55
2022/01/14 14:32:48;;;;;;;;;;;;;;;;;;4221016;28;946;-55
2022/01/14 14:35:10;;;;;;;;;;;;;;;;;;4221027;28;1214;-55
2022/01/14 14:37:33;;;;;;;;;;;;;;;;;;4220916;28;1130;-55
2022/01/14 14:39:54;;;;;;;;;;;;;;;;;;4220946;28;1168;-55
2022/01/14 14:42:14;;;;;;;;;;;;;;;;;;4221312;28;1036;-55
2022/01/14 14:44:35;;;;;;;;;;;;;;;;;;4220695;28;1052;-55
2022/01/14 14:46:55;;;;;;;;;;;;;;;;;;4220965;28;1913;-55
2022/01/14 14:49:16;;;;;;;;;;;;;;;;;;4220961;28;1160;-56
2022/01/14 14:51:36;;;;;;;;;;;;;;;;;;4220832;28;1055;-55
2022/01/14 14:53:57;;;;;;;;;;;;;;;;;;4221188;28;1210;-55
2022/01/14 14:56:17;;;;;;;;;;;;;;;;;;4220814;28;967;-55
2022/01/14 14:58:38;;;;;;;;;;;;;;;;;;4223589;28;1298;-56
2022/01/14 15:00:58;;;;;;;;;;;;;;;;;;4224079;28;1003;-55
2022/01/14 15:03:19;;;;;;;;;;;;;;;;;;4223599;28;1274;-55
2022/01/14 15:05:40;;;;;;;;;;;;;;;;;;4223551;28;897;-55
2022/01/14 15:08:00;;;;;;;;;;;;;;;;;;4223332;28;1980;-55
2022/01/14 15:10:20;;;;;;;;;;;;;;;;;;4223665;28;1462;-55
2022/01/14 15:12:40;;;;;;;;;;;;;;;;;;4213653;28;2160;-55
2022/01/14 15:15:07;;;;;;;;;;;;;;;;;;4211981;28;1444;-55
2022/01/14 15:20:06;;;;;;;;;;;;;;;;;;4222893;28;1233;-57
2022/01/14 15:22:26;;;;;;;;;;;;;;;;;;4223172;28;1280;-55
2022/01/14 15:24:47;;;;;;;;;;;;;;;;;;4221985;28;1396;-55
2022/01/14 15:27:07;;;;;;;;;;;;;;;;;;4222612;28;1914;-56
2022/01/14 15:29:28;;;;;;;;;;;;;;;;;;4220405;28;1761;-55
2022/01/14 15:31:49;;;;;;;;;;;;;;;;;;4222805;28;1981;-55
2022/01/14 15:34:09;;;;;;;;;;;;;;;;;;4222911;28;1013;-55
2022/01/14 15:36:29;;;;;;;;;;;;;;;;;;4222532;28;1509;-56
2022/01/14 15:38:50;;;;;;;;;;;;;;;;;;4219983;28;1626;-55
2022/01/14 15:41:11;;;;;;;;;;;;;;;;;;4219889;28;1359;-55
2022/01/14 15:43:32;;;;;;;;;;;;;;;;;;4220221;28;1482;-56
2022/01/14 15:45:52;;;;;;;;;;;;;;;;;;4220737;28;1619;-55
2022/01/14 15:48:14;;;;;;;;;;;;;;;;;;4219993;28;1906;-55
2022/01/14 15:50:35;;;;;;;;;;;;;;;;;;4222495;28;1174;-55
2022/01/14 15:52:55;;;;;;;;;;;;;;;;;;4223111;28;1091;-55
2022/01/14 15:55:15;;;;;;;;;;;;;;;;;;4222336;28;1147;-55
2022/01/14 15:57:35;;;;;;;;;;;;;;;;;;4222141;28;1136;-55
2022/01/14 15:59:56;;;;;;;;;;;;;;;;;;4222361;28;1412;-55
2022/01/14 16:02:16;;;;;;;;;;;;;;;;;;4204575;28;1310;-55
2022/01/14 16:04:39;;;;;;;;;;;;;;;;;;4221953;28;1070;-56
2022/01/14 16:07:00;;;;;;;;;;;;;;;;;;4221974;28;1440;-56
2022/01/14 16:09:20;;;;;;;;;;;;;;;;;;4220932;28;935;-55
2022/01/14 16:11:41;;;;;;;;;;;;;;;;;;4221278;28;1302;-55
2022/01/14 16:14:14;;;;;;;;;;;;;;;;;;4222847;28;856;-55
2022/01/14 16:16:35;;;;;;;;;;;;;;;;;;4221834;28;1080;-55
2022/01/14 16:18:55;;;;;;;;;;;;;;;;;;4222499;28;1056;-55
2022/01/14 16:21:16;;;;;;;;;;;;;;;;;;4222402;28;1005;-55
2022/01/14 16:23:36;;;;;;;;;;;;;;;;;;4222426;28;1121;-55
2022/01/14 16:25:57;;;;;;;;;;;;;;;;;;4222596;28;1266;-55
2022/01/14 16:28:18;;;;;;;;;;;;;;;;;;4222142;28;1902;-55
2022/01/14 16:30:38;;;;;;;;;;;;;;;;;;4222202;28;954;-55
2022/01/14 16:32:59;;;;;;;;;;;;;;;;;;4222599;28;875;-55
2022/01/14 16:35:19;;;;;;;;;;;;;;;;;;4222202;28;1049;-55
2022/01/14 16:37:39;;;;;;;;;;;;;;;;;;4222486;28;1025;-56
2022/01/14 16:39:59;;;;;;;;;;;;;;;;;;4220988;28;942;-55
2022/01/14 16:42:23;;;;;;;;;;;;;;;;;;4221688;28;1832;-56
2022/01/14 16:44:43;;;;;;;;;;;;;;;;;;4222158;28;1008;-56
2022/01/14 16:47:04;;;;;;;;;;;;;;;;;;4222220;28;1162;-56
2022/01/14 16:49:25;;;;;;;;;;;;;;;;;;4220902;28;1913;-56
2022/01/14 16:51:45;;;;;;;;;;;;;;;;;;4222322;28;1312;-56
2022/01/14 16:54:06;;;;;;;;;;;;;;;;;;4222145;28;1268;-56
2022/01/14 16:56:27;;;;;;;;;;;;;;;;;;4221976;28;1104;-56
2022/01/14 16:58:50;;;;;;;;;;;;;;;;;;4222195;28;1043;-55